Airfield :
LOGIN :

Register | Disclaimer

   EN    FR    IT 

 










Legend :    VFR   Marginal VFR   IFR   Intensive IFR   Very Intensive IFR
Visi :
Ceiling :
>= 8 km
>= 3000ft
5 to 8 km
1000 to 3000 ft
1500m to 5 km
500 to 1000 ft
800 to 1500m
200 to 500 ft
< 800m
< 200 ft
Symbols :   Thunderstorms  Fog  Heavy snow  Heavy precipitations  Wind > 20 kt
SIGMETs :     Misc.  Thunderstorms  Icing  Turbulence  Mountain Waves  Volcanic Ashes






- Airport Elevation : 287 ft


LFRL - Lanveoc Poulmic

CURRENT METAR :
  • 290130Z AUTO 27012KT 6000 -RA SCT004 SCT012 BKN019 12/11 Q1017

EXPIRED METARs :
  • 290100Z AUTO 24010KT 9999 FEW019 SCT024 BKN033 13/11 Q1017
  • 290030Z AUTO 24010KT 9999 BKN040 BKN049 BKN060 13/11 Q1017
  • 290000Z AUTO 24010KT 9999 FEW016 SCT076 BKN110 12/11 Q1017
  • 282330Z AUTO 23010KT CAVOK 12/11 Q1016
  • 282300Z AUTO 23010KT CAVOK 12/10 Q1016

TAF TAF LFRL
Valid from the 28 at 12:00 until the 29 at 12:00 UTC


281100Z 2812/2912 24015G25KT 9999 SCT025 BKN060
TEMPO 2812/2820 24020G35KT 4000 SHRA BKN015TCU
BECMG 2903/2906 BKN005



MET'MAP, your aeronautical weather chart ! - Copyright ORBIFLY December 2007 - Disclaimer

ORBIFLY MET'MAP TEAM :

Programming & Development : Alexandra Zaïnal
Concept & original design : Baudouin d'Aumeries
Assistance for programming : Marc-Olivier Méhu
Technical & hardware support : Manuel Goepfert

Contact : metmap@orbifly.com




SOURCES & CREDITS :

   NOAA